Time;durP1;ratioP1;P1;durP2;ratioP2;P2;SDS_P1;SDS_P2;PMS_P1;PMS_P2;Temp;Humidity;BMP_temperature;BMP_pressure;BME280_temperature;BME280_humidity;BME280_pressure;Samples;Min_cycle;Max_cycle;Signal;HPM_P1;HPM_P2
2022/03/08 00:02:09;;;;;;;18.73;10.02;;;;;;;1.46;62.53;99439.81;4898157;29;20063;-77
2022/03/08 00:04:36;;;;;;;14.45;8.70;;;;;;;1.47;62.84;99451.81;4934613;29;20051;-77
2022/03/08 00:07:03;;;;;;;13.57;8.80;;;;;;;1.35;62.34;99431.88;4935322;29;20047;-76
2022/03/08 00:09:29;;;;;;;15.05;9.30;;;;;;;1.48;62.82;99439.88;4916133;29;20588;-77
2022/03/08 00:12:05;;;;;;;;;;;;;;;;;;;;;
2022/03/08 00:14:33;;;;;;;14.57;8.35;;;;;;;1.51;62.50;99452.75;4943340;29;20083;-76
2022/03/08 00:16:59;;;;;;;12.20;7.97;;;;;;;1.53;62.15;99445.97;4929897;29;20037;-77
2022/03/08 00:19:24;;;;;;;13.02;7.45;;;;;;;1.59;62.07;99458.91;4935904;29;20114;-76
2022/03/08 00:21:50;;;;;;;12.75;7.38;;;;;;;1.40;62.15;99443.94;4914136;29;20402;-76
2022/03/08 00:24:17;;;;;;;14.23;7.53;;;;;;;1.37;62.19;99444.75;4915123;29;20046;-76
2022/03/08 00:26:43;;;;;;;12.48;7.80;;;;;;;1.46;62.27;99460.34;4910297;29;20039;-76
2022/03/08 00:29:09;;;;;;;10.82;6.88;;;;;;;1.30;62.66;99442.88;4937497;29;20554;-76
2022/03/08 00:31:35;;;;;;;10.52;6.82;;;;;;;1.44;62.41;99459.44;4932836;29;21052;-76
2022/03/08 00:34:01;;;;;;;11.10;6.30;;;;;;;1.37;62.33;99464.38;4915022;29;20525;-77
2022/03/08 00:36:29;;;;;;;10.93;6.47;;;;;;;1.31;61.66;99460.00;4913118;29;20093;-76
2022/03/08 00:38:56;;;;;;;8.88;6.00;;;;;;;1.37;62.71;99472.09;4935331;29;20067;-77
2022/03/08 00:41:22;;;;;;;11.13;6.38;;;;;;;1.38;62.38;99461.88;4932924;29;20183;-77
2022/03/08 00:43:49;;;;;;;10.27;6.80;;;;;;;1.38;62.44;99467.00;4914866;29;20134;-74
2022/03/08 00:46:15;;;;;;;11.38;6.60;;;;;;;1.45;62.38;99474.00;4935159;29;20043;-76
2022/03/08 00:48:42;;;;;;;9.52;5.85;;;;;;;1.48;61.99;99468.09;4932472;29;20031;-77
2022/03/08 00:51:08;;;;;;;11.95;6.68;;;;;;;1.35;61.72;99469.50;4911741;29;20978;-77
2022/03/08 00:53:34;;;;;;;11.75;6.80;;;;;;;1.27;62.17;99460.75;4944122;29;20035;-75
2022/03/08 00:56:01;;;;;;;11.68;7.05;;;;;;;1.18;62.17;99458.84;4943736;29;20051;-75
2022/03/08 00:58:27;;;;;;;13.13;6.95;;;;;;;1.28;61.87;99475.31;4916946;29;20134;-76
2022/03/08 01:00:53;;;;;;;11.18;6.97;;;;;;;1.33;62.02;99478.84;4920608;29;20087;-77
2022/03/08 01:03:19;;;;;;;10.80;6.53;;;;;;;1.28;62.17;99475.31;4933746;29;20040;-77
2022/03/08 01:05:45;;;;;;;9.27;6.40;;;;;;;1.31;62.95;99477.94;4898050;29;20051;-76
2022/03/08 01:08:13;;;;;;;9.52;6.28;;;;;;;1.19;61.89;99458.00;4914955;29;20055;-77
2022/03/08 01:10:40;;;;;;;9.68;5.82;;;;;;;1.28;62.14;99465.03;4916821;29;20047;-76
2022/03/08 01:13:06;;;;;;;9.05;5.80;;;;;;;1.34;62.34;99488.28;4913702;29;20064;-76
2022/03/08 01:15:33;;;;;;;11.13;6.55;;;;;;;1.17;62.11;99481.06;4915342;29;20468;-76
2022/03/08 01:18:01;;;;;;;10.27;6.95;;;;;;;1.23;62.47;99482.00;4913194;29;20077;-75
2022/03/08 01:20:28;;;;;;;10.98;6.80;;;;;;;1.23;62.01;99484.56;4913662;29;20051;-75
2022/03/08 01:22:54;;;;;;;11.05;6.70;;;;;;;1.23;62.47;99476.88;4911709;29;20040;-76
2022/03/08 01:25:21;;;;;;;11.63;7.10;;;;;;;1.27;63.08;99471.00;4913497;29;20047;-75
2022/03/08 01:27:49;;;;;;;12.35;7.35;;;;;;;1.34;62.50;99488.28;4914022;29;22175;-75
2022/03/08 01:30:17;;;;;;;10.90;7.03;;;;;;;1.23;62.32;99470.06;4897468;29;20043;-75
2022/03/08 01:32:44;;;;;;;12.32;7.10;;;;;;;1.28;62.55;99495.81;4897237;29;20063;-76
2022/03/08 01:35:14;;;;;;;10.88;7.50;;;;;;;1.15;62.43;99474.16;4913524;29;20050;-76
2022/03/08 01:37:40;;;;;;;12.20;5.70;;;;;;;1.27;62.15;99496.63;4896800;29;20036;-77
2022/03/08 01:40:09;;;;;;;9.63;5.38;;;;;;;1.20;62.70;99488.81;4930891;29;20561;-76
2022/03/08 01:42:35;;;;;;;9.75;4.88;;;;;;;1.22;62.73;99498.22;4931235;29;20127;-75
2022/03/08 01:45:03;;;;;;;9.00;4.88;;;;;;;1.14;62.71;99487.78;4916419;29;20122;-75
2022/03/08 01:47:29;;;;;;;10.07;5.10;;;;;;;1.13;62.65;99484.38;4930177;29;20040;-76
2022/03/08 01:49:55;;;;;;;10.60;4.85;;;;;;;1.06;61.37;99492.72;4919811;29;20050;-76
2022/03/08 01:52:23;;;;;;;6.80;4.28;;;;;;;1.07;62.72;99502.16;4918218;29;20048;-77
2022/03/08 01:54:50;;;;;;;8.05;4.22;;;;;;;0.97;62.36;99489.97;4922801;29;20103;-78
2022/03/08 01:57:16;;;;;;;9.55;4.70;;;;;;;0.98;62.70;99497.66;4913380;29;20055;-76
2022/03/08 01:59:43;;;;;;;13.95;5.10;;;;;;;0.94;62.58;99508.66;4930883;29;20048;-76
2022/03/08 02:02:10;;;;;;;7.15;4.95;;;;;;;0.96;62.99;99508.72;4897278;29;20043;-75
2022/03/08 02:04:37;;;;;;;7.30;4.65;;;;;;;0.99;62.73;99519.91;4925368;29;20102;-76
2022/03/08 02:07:04;;;;;;;8.77;5.35;;;;;;;0.96;62.67;99519.81;4923535;29;20043;-75
2022/03/08 02:09:30;;;;;;;8.30;5.13;;;;;;;0.80;61.95;99505.75;4897543;29;20076;-77
2022/03/08 02:11:56;;;;;;;8.38;5.13;;;;;;;0.73;62.34;99519.25;4911230;29;20483;-77
2022/03/08 02:14:22;;;;;;;7.70;5.50;;;;;;;0.75;62.64;99527.84;4930036;29;20095;-76
2022/03/08 02:16:48;;;;;;;8.40;5.72;;;;;;;0.71;62.82;99534.56;4896205;29;20572;-76
2022/03/08 02:19:15;;;;;;;10.20;6.78;;;;;;;0.71;62.69;99534.56;4913881;29;20043;-76
2022/03/08 02:21:43;;;;;;;13.50;6.28;;;;;;;0.72;62.50;99535.44;4930530;29;20058;-77
2022/03/08 02:24:09;;;;;;;10.82;6.70;;;;;;;0.70;62.39;99534.53;4913104;29;20043;-76
2022/03/08 02:26:36;;;;;;;11.45;6.93;;;;;;;0.58;62.75;99524.81;4913712;29;20043;-76
2022/03/08 02:29:06;;;;;;;11.68;7.13;;;;;;;0.65;63.01;99543.78;4914041;29;20039;-76
2022/03/08 02:31:32;;;;;;;13.50;7.55;;;;;;;0.60;62.86;99544.50;4931598;29;20138;-77
2022/03/08 02:33:59;;;;;;;11.50;6.18;;;;;;;0.55;62.72;99534.97;4912264;29;20028;-77
2022/03/08 02:36:25;;;;;;;10.57;6.47;;;;;;;0.51;62.25;99551.97;4912112;29;20047;-76
2022/03/08 02:38:51;;;;;;;10.23;6.05;;;;;;;0.48;62.43;99539.06;4910424;29;20050;-77
2022/03/08 02:41:17;;;;;;;10.10;5.75;;;;;;;0.45;62.68;99551.78;4909284;29;20044;-77
2022/03/08 02:43:44;;;;;;;9.50;6.13;;;;;;;0.53;62.55;99564.78;4895626;29;20047;-76
2022/03/08 02:46:10;;;;;;;8.07;5.18;;;;;;;0.51;62.46;99562.19;4927652;29;20506;-77
2022/03/08 02:48:36;;;;;;;7.78;4.82;;;;;;;0.52;62.84;99548.56;4919239;29;20060;-77
2022/03/08 02:51:03;;;;;;;5.97;3.88;;;;;;;0.54;62.71;99569.09;4920206;29;20043;-77
2022/03/08 02:53:30;;;;;;;7.10;4.10;;;;;;;0.43;62.76;99566.22;4897563;29;20561;-76
2022/03/08 02:55:56;;;;;;;6.30;3.47;;;;;;;0.45;62.82;99577.38;4913051;29;20043;-76
2022/03/08 02:58:22;;;;;;;6.28;3.95;;;;;;;0.43;62.67;99574.78;4930184;29;20048;-76
2022/03/08 03:00:48;;;;;;;8.18;3.63;;;;;;;0.38;62.80;99562.66;4911191;29;20066;-76
2022/03/08 03:03:15;;;;;;;6.82;4.35;;;;;;;0.50;62.54;99591.19;4927515;29;20044;-75
2022/03/08 03:05:41;;;;;;;7.65;5.05;;;;;;;0.54;62.06;99592.13;4911629;29;20050;-75
2022/03/08 03:08:07;;;;;;;9.93;5.88;;;;;;;0.52;62.26;99589.53;4905890;29;20410;-76
2022/03/08 03:10:33;;;;;;;9.38;5.40;;;;;;;0.52;62.31;99574.19;4891298;29;20047;-75
2022/03/08 03:12:59;;;;;;;10.27;5.78;;;;;;;0.65;62.63;99597.56;4900344;29;20031;-75
2022/03/08 03:15:27;;;;;;;9.85;6.13;;;;;;;0.58;61.87;99589.69;4933060;29;20386;-76
2022/03/08 03:17:54;;;;;;;10.65;6.20;;;;;;;0.47;61.69;99583.41;4938638;29;20035;-76
2022/03/08 03:20:22;;;;;;;10.05;6.03;;;;;;;0.45;62.34;99593.59;4909401;29;20035;-77
2022/03/08 03:22:49;;;;;;;10.43;5.97;;;;;;;0.54;62.31;99603.25;4905659;29;20119;-77
2022/03/08 03:25:16;;;;;;;11.38;5.72;;;;;;;0.52;62.02;99610.03;4936498;29;20043;-76
2022/03/08 03:27:43;;;;;;;10.05;5.65;;;;;;;0.48;61.69;99603.06;4935875;29;20043;-76
2022/03/08 03:30:13;;;;;;;11.45;5.40;;;;;;;0.51;61.93;99617.66;4953152;29;20044;-77
2022/03/08 03:32:39;;;;;;;10.25;5.70;;;;;;;0.50;61.93;99621.03;4950676;29;20051;-76
2022/03/08 03:35:07;;;;;;;9.23;5.13;;;;;;;0.47;61.72;99610.69;4919999;29;20040;-76
2022/03/08 03:37:33;;;;;;;8.43;4.95;;;;;;;0.41;62.16;99607.16;4901348;29;20067;-77
2022/03/08 03:39:59;;;;;;;7.88;5.18;;;;;;;0.35;61.59;99617.22;4914667;29;20150;-75
2022/03/08 03:42:25;;;;;;;9.85;5.72;;;;;;;0.39;61.47;99623.28;4915104;29;20572;-76
2022/03/08 03:44:51;;;;;;;9.23;5.50;;;;;;;0.39;60.90;99630.97;4932531;29;20142;-77
2022/03/08 03:47:17;;;;;;;8.68;5.55;;;;;;;0.38;61.27;99629.22;4932688;29;20036;-76
2022/03/08 03:49:43;;;;;;;10.30;6.03;;;;;;;0.31;61.24;99629.88;4914901;29;20044;-76
2022/03/08 03:52:09;;;;;;;8.25;5.22;;;;;;;0.36;61.65;99635.97;4914448;29;20047;-76
2022/03/08 03:54:35;;;;;;;11.43;5.32;;;;;;;0.17;61.69;99611.53;4899386;29;20043;-76
2022/03/08 03:57:00;;;;;;;7.82;5.05;;;;;;;0.33;61.33;99633.34;4931636;29;20098;-76
2022/03/08 03:59:26;;;;;;;7.65;4.47;;;;;;;0.25;60.99;99621.19;4914612;29;20050;-76
2022/03/08 04:01:52;;;;;;;7.93;4.70;;;;;;;0.33;60.79;99647.00;4914115;29;20071;-76
2022/03/08 04:04:18;;;;;;;9.25;4.90;;;;;;;0.27;61.34;99660.50;4915756;29;20048;-75
2022/03/08 04:06:44;;;;;;;8.00;4.63;;;;;;;0.14;61.68;99638.78;4914275;29;20044;-76
2022/03/08 04:09:13;;;;;;;8.23;4.63;;;;;;;0.12;60.98;99635.31;4899791;29;20074;-75
2022/03/08 04:11:39;;;;;;;7.43;4.95;;;;;;;0.25;61.50;99666.38;4898738;29;20501;-76
2022/03/08 04:14:05;;;;;;;9.57;4.88;;;;;;;0.19;61.04;99649.16;4913693;29;20063;-76
2022/03/08 04:16:31;;;;;;;7.25;4.22;;;;;;;0.14;61.51;99654.13;4914768;29;20082;-76
2022/03/08 04:18:57;;;;;;;8.25;4.50;;;;;;;0.16;61.27;99661.00;4914227;29;20067;-76
2022/03/08 04:21:23;;;;;;;7.97;3.85;;;;;;;0.14;61.65;99658.38;4903194;29;20051;-76
2022/03/08 04:23:48;;;;;;;9.07;4.50;;;;;;;0.21;61.54;99667.97;4913179;29;20043;-78
2022/03/08 04:26:14;;;;;;;8.75;4.32;;;;;;;0.25;61.05;99677.50;4913730;29;20469;-76
2022/03/08 04:28:40;;;;;;;7.95;4.28;;;;;;;0.31;60.96;99676.81;4913356;29;20044;-76
2022/03/08 04:31:06;;;;;;;6.63;3.90;;;;;;;0.29;61.18;99679.34;4914171;29;20039;-77
2022/03/08 04:33:32;;;;;;;6.13;4.20;;;;;;;0.22;60.90;99666.31;4896119;29;20048;-77
2022/03/08 04:35:58;;;;;;;6.07;3.80;;;;;;;0.28;60.96;99675.03;4895733;29;20035;-76
2022/03/08 04:38:24;;;;;;;7.80;4.32;;;;;;;0.34;61.22;99686.25;4898959;29;20042;-77
2022/03/08 04:40:50;;;;;;;10.63;4.30;;;;;;;0.33;61.46;99692.25;4915086;29;20046;-76
2022/03/08 04:43:16;;;;;;;7.25;4.18;;;;;;;0.34;60.79;99687.16;4915771;29;20489;-75
2022/03/08 04:45:43;;;;;;;8.43;4.20;;;;;;;0.23;61.30;99686.81;4918308;29;20047;-75
2022/03/08 04:48:09;;;;;;;7.60;4.22;;;;;;;0.37;60.81;99692.38;4913707;29;21030;-75
2022/03/08 04:50:35;;;;;;;8.73;5.35;;;;;;;0.36;61.02;99699.97;4930932;29;20150;-77
2022/03/08 04:53:01;;;;;;;8.20;4.97;;;;;;;0.29;60.81;99694.69;4914505;29;20042;-75
2022/03/08 04:55:27;;;;;;;10.23;4.85;;;;;;;0.30;61.16;99693.00;4934736;29;20079;-76
2022/03/08 04:57:59;;;;;;;10.30;5.50;;;;;;;0.31;60.84;99706.69;4917464;29;20103;-76
2022/03/08 05:00:26;;;;;;;8.93;5.57;;;;;;;0.28;60.88;99716.00;4915714;29;20211;-78
2022/03/08 05:02:52;;;;;;;7.60;4.82;;;;;;;0.21;60.91;99715.75;4914934;29;20043;-76
2022/03/08 05:05:18;;;;;;;8.95;5.55;;;;;;;0.29;61.35;99721.97;4932814;29;20282;-77
2022/03/08 05:07:44;;;;;;;8.57;5.72;;;;;;;0.27;61.29;99723.59;4949656;29;20075;-77
2022/03/08 05:10:12;;;;;;;10.70;5.85;;;;;;;0.22;61.54;99732.84;4950653;29;20035;-77
2022/03/08 05:12:39;;;;;;;10.10;5.88;;;;;;;0.20;61.55;99740.47;4928104;29;20035;-76
2022/03/08 05:15:06;;;;;;;11.75;5.88;;;;;;;0.08;61.48;99725.59;4922431;29;20031;-76
2022/03/08 05:17:33;;;;;;;10.60;6.10;;;;;;;-0.04;61.17;99708.16;4936837;29;20036;-77
2022/03/08 05:20:15;;;;;;;8.73;5.40;;;;;;;0.11;60.85;99740.19;4934187;29;20075;-76
2022/03/08 05:22:41;;;;;;;;;;;;;;;0.10;60.94;99743.56;4902844;29;20054;-77
2022/03/08 05:25:08;;;;;;;6.85;4.20;;;;;;;0.09;61.60;99740.13;4929802;29;19919;-75
2022/03/08 05:27:34;;;;;;;7.57;4.13;;;;;;;0.16;60.97;99748.88;4911228;29;20055;-76
2022/03/08 05:30:00;;;;;;;6.47;4.13;;;;;;;0.06;61.26;99736.59;4913103;29;20048;-77
2022/03/08 05:32:26;;;;;;;10.52;3.83;;;;;;;0.09;60.67;99747.81;4929574;29;20592;-77
2022/03/08 05:34:52;;;;;;;7.22;3.90;;;;;;;0.07;61.42;99748.59;4930470;29;20043;-75
2022/03/08 05:37:18;;;;;;;6.18;3.83;;;;;;;0.13;60.79;99749.66;4913697;29;20124;-76
2022/03/08 05:39:44;;;;;;;5.63;3.72;;;;;;;0.17;60.90;99765.97;4930848;29;20047;-76
2022/03/08 05:42:10;;;;;;;6.97;4.00;;;;;;;0.23;60.70;99775.53;4912916;29;20039;-77
2022/03/08 05:44:38;;;;;;;7.68;3.80;;;;;;;0.18;61.07;99774.53;4930307;29;20043;-77
2022/03/08 05:47:05;;;;;;;5.60;3.38;;;;;;;0.13;60.45;99771.78;4889822;29;20047;-79
2022/03/08 05:49:31;;;;;;;6.72;3.78;;;;;;;0.07;60.21;99774.16;4930088;29;20388;-77
2022/03/08 05:51:57;;;;;;;6.40;3.53;;;;;;;0.14;61.15;99788.88;4921585;29;20051;-76
2022/03/08 05:54:24;;;;;;;6.35;3.63;;;;;;;0.11;60.72;99791.38;4896889;29;20394;-78
2022/03/08 05:56:50;;;;;;;5.90;3.88;;;;;;;0.13;61.33;99787.16;4897126;29;20183;-77
2022/03/08 05:59:16;;;;;;;7.70;3.90;;;;;;;0.13;61.12;99792.25;4914444;29;20134;-78
2022/03/08 06:01:42;;;;;;;6.10;3.90;;;;;;;0.21;61.66;99788.28;4919813;29;20055;-77
2022/03/08 06:04:18;;;;;;;6.55;3.50;;;;;;;0.33;60.83;99797.19;4918812;29;20182;-78
2022/03/08 06:06:44;;;;;;;5.68;3.38;;;;;;;0.33;60.81;99798.06;4922193;29;20050;-78
2022/03/08 06:09:14;;;;;;;5.78;3.30;;;;;;;0.24;60.60;99788.38;4937134;29;20047;-78
2022/03/08 06:11:40;;;;;;;5.35;3.42;;;;;;;0.32;60.55;99803.13;4919120;29;20039;-77
2022/03/08 06:14:09;;;;;;;7.05;3.67;;;;;;;0.22;60.50;99768.69;4914292;29;20046;-81
2022/03/08 06:16:35;;;;;;;6.03;3.53;;;;;;;0.41;60.08;99803.41;4915310;29;20410;-77
2022/03/08 06:19:05;;;;;;;7.05;3.85;;;;;;;0.52;60.53;99812.34;4897898;29;20100;-77
2022/03/08 06:21:31;;;;;;;7.13;3.97;;;;;;;0.56;59.95;99798.78;4931782;29;20063;-77
2022/03/08 06:24:19;;;;;;;6.45;3.92;;;;;;;0.51;60.30;99776.41;4916797;29;20047;-79
2022/03/08 06:26:45;;;;;;;8.55;4.03;;;;;;;0.22;60.03;99718.34;4922916;29;20031;-78
2022/03/08 06:29:37;;;;;;;8.27;3.97;;;;;;;0.87;60.13;99809.97;4948333;29;20111;-77
2022/03/08 06:32:04;;;;;;;6.50;3.80;;;;;;;0.58;59.22;99755.31;4933962;29;20115;-77
2022/03/08 06:34:34;;;;;;;5.70;3.60;;;;;;;0.89;58.57;99813.47;4932499;29;20052;-81
2022/03/08 06:37:06;;;;;;;5.38;3.38;;;;;;;0.96;59.55;99818.78;4913147;29;20502;-78
2022/03/08 06:39:54;;;;;;;4.55;3.17;;;;;;;0.77;58.87;99761.88;4911149;29;20066;-80
2022/03/08 06:42:24;;;;;;;7.55;3.30;;;;;;;0.63;58.92;99735.84;4941804;29;20043;-79
2022/03/08 06:44:52;;;;;;;;;;;;;;;1.29;59.00;99833.41;4921142;29;20050;-77
2022/03/08 06:47:40;;;;;;;6.03;3.55;;;;;;;1.26;58.92;99844.47;4934557;29;19923;-77
2022/03/08 06:50:08;;;;;;;6.20;3.47;;;;;;;1.10;57.08;99838.00;4944994;29;20107;-79
2022/03/08 06:53:06;;;;;;;5.65;3.22;;;;;;;0.70;58.60;99770.19;4923608;29;20043;-77
2022/03/08 06:56:02;;;;;;;4.78;3.25;;;;;;;0.95;58.03;99822.16;4869837;29;20045;-77
2022/03/08 06:58:30;;;;;;;;;;;;;;;1.37;57.57;99847.34;4904895;29;20043;-77
2022/03/08 07:00:56;;;;;;;6.88;3.30;;;;;;;1.08;57.38;99808.03;4922940;29;19970;-77
2022/03/08 07:03:29;;;;;;;5.50;3.50;;;;;;;1.28;57.51;99852.19;4941495;29;20051;-77
2022/03/08 07:05:55;;;;;;;5.03;3.42;;;;;;;1.33;57.91;99868.59;4923240;29;20043;-78
2022/03/08 07:08:22;;;;;;;4.97;3.10;;;;;;;1.37;56.69;99866.97;4939439;29;20418;-77
2022/03/08 07:11:01;;;;;;;3.85;2.83;;;;;;;1.22;56.68;99860.56;4902470;29;20270;-80
2022/03/08 07:14:05;;;;;;;5.20;3.08;;;;;;;0.67;55.91;99796.53;4929304;29;20178;-78
2022/03/08 07:16:34;;;;;;;6.45;3.67;;;;;;;0.57;55.99;99818.44;4930024;29;20055;-79
2022/03/08 07:19:18;;;;;;;5.57;3.10;;;;;;;0.90;55.69;99886.97;4897005;29;20578;-79
2022/03/08 07:22:20;;;;;;;6.20;3.27;;;;;;;0.99;56.70;99882.97;4912535;29;20052;-78
2022/03/08 07:24:46;;;;;;;4.82;2.85;;;;;;;0.92;55.96;99863.06;4914714;29;20638;-78
2022/03/08 07:27:12;;;;;;;4.32;3.03;;;;;;;1.02;55.12;99883.03;4912606;29;20043;-77
2022/03/08 07:29:39;;;;;;;6.32;3.40;;;;;;;0.88;55.73;99870.66;4893912;29;20114;-78
2022/03/08 07:32:07;;;;;;;6.25;3.33;;;;;;;0.70;54.49;99880.31;4895789;29;20043;-78
2022/03/08 07:34:34;;;;;;;3.63;2.63;;;;;;;0.63;55.17;99878.38;4911388;29;20047;-79
2022/03/08 07:37:26;;;;;;;5.20;3.00;;;;;;;0.80;55.34;99895.16;4915725;29;20067;-79
2022/03/08 07:41:08;;;;;;;6.20;3.42;;;;;;;0.59;55.26;99868.03;4930437;29;20521;-80
2022/03/08 07:44:51;;;;;;;7.28;3.13;;;;;;;0.58;54.75;99838.13;4915465;29;21471;-77
2022/03/08 07:47:26;;;;;;;3.92;2.90;;;;;;;0.76;54.48;99847.22;4912099;29;20048;-79
2022/03/08 07:49:53;;;;;;;6.05;3.38;;;;;;;1.20;54.52;99913.50;4896097;29;20070;-79
2022/03/08 07:52:31;;;;;;;4.65;3.10;;;;;;;0.77;53.80;99804.53;4899524;29;20039;-78
2022/03/08 07:55:09;;;;;;;6.43;3.22;;;;;;;1.50;53.83;99912.69;4928681;29;20047;-77
2022/03/08 07:57:41;;;;;;;4.97;3.28;;;;;;;1.17;53.58;99855.31;4921468;29;20051;-78
2022/03/08 08:00:14;;;;;;;5.72;3.35;;;;;;;1.47;53.36;99922.84;4918299;29;20052;-78
2022/03/08 08:02:40;;;;;;;5.93;3.28;;;;;;;1.28;53.47;99890.66;4918665;29;20063;-78
2022/03/08 08:05:15;;;;;;;4.75;2.97;;;;;;;1.45;53.17;99914.25;4936723;29;20032;-78
2022/03/08 08:07:55;;;;;;;6.20;3.75;;;;;;;1.49;52.59;99922.06;4908049;29;20065;-79
2022/03/08 08:10:34;;;;;;;6.15;3.50;;;;;;;1.32;52.51;99903.63;4941825;29;20043;-80
2022/03/08 08:13:01;;;;;;;6.70;3.20;;;;;;;1.13;51.97;99915.00;4933017;29;20095;-79
2022/03/08 08:15:31;;;;;;;6.70;2.97;;;;;;;1.16;52.54;99917.66;4912308;29;20127;-77
2022/03/08 08:17:58;;;;;;;5.30;3.22;;;;;;;1.20;52.85;99924.63;4925095;29;20086;-79
2022/03/08 08:20:25;;;;;;;5.30;3.13;;;;;;;0.92;52.33;99875.88;4915659;29;20051;-78
2022/03/08 08:22:54;;;;;;;5.25;3.20;;;;;;;1.30;52.11;99935.16;4945043;29;20123;-79
2022/03/08 08:25:29;;;;;;;5.70;3.45;;;;;;;1.30;51.71;99935.16;4930204;29;20087;-78
2022/03/08 08:28:07;;;;;;;4.93;3.10;;;;;;;1.11;51.79;99926.91;4938038;29;20039;-78
2022/03/08 08:30:59;;;;;;;;;;;;;;;;;;;;;
2022/03/08 08:37:39;;;;;;;5.65;3.33;;;;;;;1.23;51.40;99976.78;4916191;29;20164;-79
2022/03/08 08:40:12;;;;;;;5.45;3.10;;;;;;;1.09;51.90;99955.88;4928529;29;20183;-79
2022/03/08 08:42:46;;;;;;;5.78;2.95;;;;;;;1.23;50.85;99958.84;4915420;29;20050;-76
2022/03/08 08:45:21;;;;;;;5.07;3.40;;;;;;;1.25;50.66;99962.34;4918788;29;20043;-78
2022/03/08 08:48:07;;;;;;;;;;;;;;;;;;;;;
2022/03/08 08:50:49;;;;;;;5.38;3.08;;;;;;;1.43;51.05;99944.09;4936442;29;20103;-76
2022/03/08 08:53:51;;;;;;;5.60;3.30;;;;;;;1.60;50.36;99960.84;4919344;29;20044;-78
2022/03/08 08:56:47;;;;;;;4.32;2.75;;;;;;;0.84;50.64;99837.22;4902224;29;20044;-80
2022/03/08 09:00:29;;;;;;;;;;;;;;;;;;;;;
2022/03/08 09:04:28;;;;;;;;;;;;;;;;;;;;;
2022/03/08 09:07:20;;;;;;;6.22;3.17;;;;;;;1.39;50.43;99881.59;4897387;29;20060;-78
2022/03/08 09:09:53;;;;;;;6.82;3.45;;;;;;;1.85;49.21;99950.47;4901785;29;20035;-79
2022/03/08 09:12:58;;;;;;;6.03;3.03;;;;;;;1.96;49.34;99977.31;4879789;29;20032;-78
2022/03/08 09:15:27;;;;;;;6.40;3.53;;;;;;;1.50;49.02;99879.34;4907999;29;20060;-79
2022/03/08 09:18:05;;;;;;;5.70;3.45;;;;;;;1.89;48.98;99940.31;4906322;29;20035;-78
2022/03/08 09:20:38;;;;;;;4.30;2.83;;;;;;;1.73;48.94;99895.38;4901930;29;20054;-80
2022/03/08 09:23:20;;;;;;;5.63;3.40;;;;;;;2.01;48.89;99954.31;4904622;29;20056;-81
2022/03/08 09:25:49;;;;;;;6.13;3.40;;;;;;;2.13;49.07;99988.06;4924231;29;20044;-77
2022/03/08 09:28:44;;;;;;;4.57;3.22;;;;;;;2.31;48.93;99997.09;4918661;29;20039;-80
2022/03/08 09:31:12;;;;;;;5.53;3.50;;;;;;;2.02;48.60;99969.78;4901920;29;20076;-78
2022/03/08 09:33:39;;;;;;;6.13;3.40;;;;;;;2.33;48.23;99996.31;4909273;29;20040;-78
2022/03/08 09:36:17;;;;;;;5.35;3.47;;;;;;;1.98;49.07;99911.47;4899957;29;20263;-77
2022/03/08 09:39:03;;;;;;;4.75;3.20;;;;;;;2.13;48.03;99925.56;4898057;29;20586;-78
2022/03/08 09:42:30;;;;;;;5.25;3.25;;;;;;;2.08;48.01;99928.88;4905658;29;20570;-77
2022/03/08 09:45:05;;;;;;;6.22;3.15;;;;;;;2.53;47.84;100011.41;4890105;29;20138;-77
2022/03/08 09:47:33;;;;;;;4.22;2.65;;;;;;;2.35;48.02;99966.41;4887528;29;20056;-78
2022/03/08 09:50:18;;;;;;;5.43;3.28;;;;;;;2.65;47.96;100023.72;4896319;29;20043;-79
2022/03/08 09:52:58;;;;;;;7.20;3.17;;;;;;;2.02;46.78;99941.53;4899850;29;20044;-79
2022/03/08 09:55:28;;;;;;;4.10;2.95;;;;;;;1.89;47.15;99935.19;4896577;29;20098;-80
2022/03/08 09:58:01;;;;;;;7.60;3.40;;;;;;;2.20;47.57;100025.03;4910024;29;20048;-78
2022/03/08 10:00:31;;;;;;;6.82;3.33;;;;;;;2.03;47.95;99997.19;4879617;29;20071;-77
2022/03/08 10:02:59;;;;;;;5.50;3.42;;;;;;;2.11;47.61;100011.09;4926588;29;20028;-78
2022/03/08 10:05:37;;;;;;;4.90;2.75;;;;;;;2.17;48.33;100015.56;4922953;29;20042;-78
2022/03/08 10:08:21;;;;;;;5.70;3.50;;;;;;;2.21;48.07;100016.50;4900832;29;20160;-78
2022/03/08 10:10:52;;;;;;;6.43;3.00;;;;;;;2.29;47.46;100016.72;4935642;29;20525;-80
2022/03/08 10:14:13;;;;;;;5.55;3.55;;;;;;;2.19;47.14;100013.91;4925367;29;20043;-78
2022/03/08 10:16:58;;;;;;;7.50;4.03;;;;;;;1.87;47.39;99965.06;4908689;29;20044;-78
2022/03/08 10:19:29;;;;;;;5.80;3.83;;;;;;;1.84;47.13;99948.72;4921090;29;20537;-76
2022/03/08 10:22:23;;;;;;;10.07;4.70;;;;;;;1.75;47.38;99945.06;4941388;29;20480;-78
2022/03/08 10:26:00;;;;;;;;;;;;;;;;;;;;;
2022/03/08 10:29:24;;;;;;;12.32;6.18;;;;;;;1.88;47.00;99984.78;4908864;29;20054;-79
2022/03/08 10:32:54;;;;;;;;;;;;;;;;;;;;;
2022/03/08 10:35:46;;;;;;;13.63;6.90;;;;;;;1.60;46.57;99901.00;4909523;29;20501;-78
2022/03/08 10:38:13;;;;;;;15.90;8.13;;;;;;;2.43;46.50;100022.25;4915309;29;20115;-78
2022/03/08 10:40:44;;;;;;;7.20;4.55;;;;;;;1.95;46.44;99955.91;4910940;29;20040;-76
2022/03/08 10:43:16;;;;;;;7.78;3.78;;;;;;;2.02;45.93;99979.16;4924407;29;20107;-76
2022/03/08 10:45:52;;;;;;;4.90;3.60;;;;;;;2.51;46.06;100055.03;4943065;29;20043;-77
2022/03/08 10:48:26;;;;;;;6.60;4.13;;;;;;;2.02;45.74;100002.28;4929985;29;20039;-74
2022/03/08 10:51:10;;;;;;;7.90;4.15;;;;;;;2.22;46.18;100051.66;4943906;29;20040;-78
2022/03/08 10:53:38;;;;;;;7.30;4.50;;;;;;;1.99;46.12;100005.63;4924780;29;20048;-79
2022/03/08 10:56:21;;;;;;;7.88;4.90;;;;;;;1.89;46.33;99998.47;4947736;29;20044;-79
2022/03/08 10:59:11;;;;;;;;;;;;;;;2.21;46.23;100062.75;4928415;29;20494;-79
2022/03/08 11:01:50;;;;;;;7.88;4.53;;;;;;;2.11;45.95;100069.31;4919789;29;19926;-79
2022/03/08 11:04:54;;;;;;;6.15;4.40;;;;;;;2.23;46.38;100061.09;4935598;29;20130;-78
2022/03/08 11:07:23;;;;;;;6.30;4.45;;;;;;;2.31;45.90;100059.63;4920517;29;20498;-78
2022/03/08 11:09:53;;;;;;;6.82;3.92;;;;;;;1.98;45.31;100015.88;4919792;29;20043;-79
2022/03/08 11:12:23;;;;;;;6.00;3.90;;;;;;;2.08;46.03;100046.09;4914686;29;20039;-77
2022/03/08 11:14:50;;;;;;;7.70;4.22;;;;;;;2.24;46.02;100055.97;4940578;29;20560;-80
2022/03/08 11:17:17;;;;;;;8.07;4.63;;;;;;;1.46;46.29;99931.38;4902770;29;20079;-79
2022/03/08 11:19:45;;;;;;;7.00;4.65;;;;;;;1.76;45.56;99975.03;4938370;29;20510;-80
2022/03/08 11:22:20;;;;;;;8.23;5.13;;;;;;;1.77;45.19;99983.56;4916929;29;20070;-80
2022/03/08 11:24:58;;;;;;;6.57;4.20;;;;;;;2.22;45.55;100073.03;4934524;29;20080;-81
2022/03/08 11:27:26;;;;;;;8.95;3.97;;;;;;;2.16;45.95;100070.31;4908275;29;20047;-81
2022/03/08 11:29:55;;;;;;;6.72;3.67;;;;;;;1.92;45.23;100049.91;4933919;29;20043;-77
2022/03/08 11:32:40;;;;;;;7.43;3.90;;;;;;;2.08;46.11;100048.66;4935092;29;20091;-78
2022/03/08 11:35:27;;;;;;;5.88;3.50;;;;;;;2.41;45.26;100071.88;4935881;29;20046;-79
2022/03/08 11:38:01;;;;;;;7.55;3.78;;;;;;;2.07;45.25;100024.69;4918620;29;20064;-79
2022/03/08 11:40:37;;;;;;;7.15;3.60;;;;;;;2.32;44.50;100076.75;4937311;29;20043;-78
2022/03/08 11:43:07;;;;;;;4.95;3.20;;;;;;;2.37;44.97;100069.19;4947011;29;20051;-80
2022/03/08 11:45:42;;;;;;;4.88;3.30;;;;;;;2.38;45.66;100042.69;4955139;29;20067;-76
2022/03/08 11:48:56;;;;;;;7.13;3.70;;;;;;;1.98;44.95;99967.09;4938688;29;20048;-77
2022/03/08 11:51:25;;;;;;;5.68;4.10;;;;;;;2.57;44.74;100069.75;4932103;29;20047;-76
2022/03/08 11:54:28;;;;;;;5.18;3.42;;;;;;;2.78;44.80;100072.03;4931915;29;20485;-77
2022/03/08 11:57:00;;;;;;;6.15;3.10;;;;;;;2.95;43.56;100080.22;4925516;29;20142;-77
2022/03/08 11:59:33;;;;;;;5.65;3.50;;;;;;;3.01;44.55;100077.78;4931816;29;20053;-78
2022/03/08 12:02:10;;;;;;;6.97;3.90;;;;;;;2.54;44.48;100000.28;4925434;29;20063;-78
2022/03/08 12:05:16;;;;;;;5.68;3.70;;;;;;;2.84;44.80;100048.19;4918878;29;20132;-76
2022/03/08 12:07:50;;;;;;;9.50;4.72;;;;;;;2.63;44.41;99997.97;4903242;29;20545;-78
2022/03/08 12:10:27;;;;;;;8.95;4.18;;;;;;;2.14;43.88;99963.25;4922619;29;20066;-77
2022/03/08 12:13:09;;;;;;;7.05;4.10;;;;;;;2.84;43.83;100102.19;4953319;29;20154;-78
2022/03/08 12:16:49;;;;;;;5.65;3.15;;;;;;;2.64;43.47;100083.66;4941935;29;20048;-77
2022/03/08 12:19:40;;;;;;;7.65;4.00;;;;;;;2.61;43.81;100084.44;4920029;29;20097;-81
2022/03/08 12:22:38;;;;;;;7.38;3.45;;;;;;;2.59;43.79;100086.06;4943089;29;20040;-78
2022/03/08 12:25:18;;;;;;;5.93;3.13;;;;;;;2.86;44.62;100096.28;4904919;29;20055;-77